Time;durP1;ratioP1;P1;durP2;ratioP2;P2;SDS_P1;SDS_P2;PMS_P1;PMS_P2;Temp;Humidity;BMP_temperature;BMP_pressure;BME280_temperature;BME280_humidity;BME280_pressure;Samples;Min_cycle;Max_cycle;Signal;HPM_P1;HPM_P2
2021/08/23 00:00:37;;;;;;;3.90;2.15;;;25.20;50.60;;;;;;5029266;28;20275;-55
2021/08/23 00:03:03;;;;;;;2.65;2.38;;;25.20;51.30;;;;;;5029097;28;20202;-56
2021/08/23 00:05:29;;;;;;;2.63;2.42;;;25.20;50.70;;;;;;5025099;28;20205;-57
2021/08/23 00:07:56;;;;;;;2.47;2.28;;;25.10;50.60;;;;;;5029804;28;20213;-56
2021/08/23 00:10:23;;;;;;;2.58;2.20;;;25.10;50.60;;;;;;5028381;28;20256;-54
2021/08/23 00:12:50;;;;;;;2.60;2.35;;;25.10;50.50;;;;;;5030227;28;20201;-54
2021/08/23 00:15:16;;;;;;;2.25;2.05;;;25.10;50.60;;;;;;5029107;28;20201;-55
2021/08/23 00:17:42;;;;;;;2.17;1.98;;;25.10;50.60;;;;;;5030090;28;20286;-57
2021/08/23 00:20:10;;;;;;;2.80;2.30;;;25.10;50.60;;;;;;5028343;28;20309;-56
2021/08/23 00:22:46;;;;;;;3.00;2.47;;;25.20;50.70;;;;;;5029925;28;20203;-54
2021/08/23 00:25:13;;;;;;;2.50;2.30;;;25.20;50.70;;;;;;5029158;28;20205;-56
2021/08/23 00:27:39;;;;;;;2.33;2.13;;;25.10;50.50;;;;;;5029301;28;20209;-55
2021/08/23 00:30:07;;;;;;;3.88;2.50;;;25.10;50.50;;;;;;5025458;28;20235;-55
2021/08/23 00:32:34;;;;;;;2.15;1.95;;;25.10;50.50;;;;;;5020510;28;20270;-54
2021/08/23 00:35:00;;;;;;;2.80;2.50;;;25.10;50.50;;;;;;5026464;28;20202;-55
2021/08/23 00:37:27;;;;;;;2.90;2.63;;;25.10;50.50;;;;;;5027486;28;20221;-55
2021/08/23 00:39:53;;;;;;;3.22;2.70;;;25.10;50.50;;;;;;5029140;28;20218;-56
2021/08/23 00:42:19;;;;;;;2.55;2.35;;;25.10;50.50;;;;;;5029672;28;20206;-56
2021/08/23 00:44:46;;;;;;;2.30;2.05;;;25.10;50.60;;;;;;5028817;28;20209;-54
2021/08/23 00:47:12;;;;;;;2.40;2.20;;;25.10;50.60;;;;;;5029992;28;20219;-56
2021/08/23 00:49:39;;;;;;;2.90;2.03;;;25.10;50.50;;;;;;5028078;28;20238;-56
2021/08/23 00:52:05;;;;;;;2.75;2.33;;;25.10;50.60;;;;;;5029695;28;20199;-54
2021/08/23 00:54:32;;;;;;;2.40;2.20;;;25.20;50.70;;;;;;5026930;28;20209;-54
2021/08/23 00:56:58;;;;;;;3.35;2.35;;;25.10;50.60;;;;;;5031027;28;20270;-56
2021/08/23 00:59:25;;;;;;;2.35;2.15;;;25.10;50.60;;;;;;5031935;28;20222;-54
2021/08/23 01:01:51;;;;;;;2.10;1.90;;;25.10;50.50;;;;;;5032074;28;20332;-55
2021/08/23 01:04:18;;;;;;;2.42;2.20;;;25.10;50.60;;;;;;5027866;28;20216;-56
2021/08/23 01:06:44;;;;;;;3.25;2.25;;;25.10;51.20;;;;;;5031324;28;20195;-54
2021/08/23 01:09:10;;;;;;;2.30;2.10;;;25.10;50.60;;;;;;5033383;28;20234;-55
2021/08/23 01:11:37;;;;;;;2.60;2.40;;;25.10;50.50;;;;;;5031006;28;20240;-56
2021/08/23 01:14:03;;;;;;;2.65;2.28;;;25.10;50.60;;;;;;5032997;28;20211;-55
2021/08/23 01:16:30;;;;;;;2.70;2.30;;;25.10;50.60;;;;;;5032625;28;20214;-55
2021/08/23 01:18:56;;;;;;;2.00;1.90;;;25.10;50.60;;;;;;5031945;28;20216;-56
2021/08/23 01:21:23;;;;;;;2.40;2.20;;;25.10;50.60;;;;;;5031212;28;20203;-56
2021/08/23 01:23:49;;;;;;;2.00;1.90;;;25.10;50.60;;;;;;5032413;28;20198;-55
2021/08/23 01:26:15;;;;;;;2.90;2.30;;;25.10;50.50;;;;;;5031734;28;20281;-55
2021/08/23 01:28:42;;;;;;;2.20;2.00;;;25.10;50.50;;;;;;5032803;28;20198;-56
2021/08/23 01:31:09;;;;;;;2.63;2.05;;;25.10;50.50;;;;;;5031406;28;20229;-55
2021/08/23 01:33:35;;;;;;;2.35;2.15;;;25.10;50.50;;;;;;5031655;28;20202;-56
2021/08/23 01:36:02;;;;;;;2.30;2.10;;;25.10;50.50;;;;;;5031413;28;20199;-55
2021/08/23 01:38:28;;;;;;;2.38;2.17;;;25.10;50.50;;;;;;5032310;28;20226;-55
2021/08/23 01:40:54;;;;;;;2.30;2.10;;;25.10;50.50;;;;;;5031903;28;20248;-53
2021/08/23 01:43:21;;;;;;;2.22;2.03;;;25.10;50.60;;;;;;5031426;28;20203;-54
2021/08/23 01:45:47;;;;;;;2.45;2.25;;;25.10;50.50;;;;;;5030705;28;20222;-56
2021/08/23 01:48:14;;;;;;;2.13;1.92;;;25.10;50.50;;;;;;5032672;28;20213;-55
2021/08/23 01:50:40;;;;;;;2.30;2.10;;;25.10;50.60;;;;;;5030998;28;20290;-53
2021/08/23 01:53:07;;;;;;;1.92;1.83;;;25.10;50.60;;;;;;5032320;28;20194;-55
2021/08/23 01:55:33;;;;;;;2.35;1.92;;;25.10;50.60;;;;;;5031259;28;20203;-56
2021/08/23 01:58:02;;;;;;;2.33;2.10;;;25.10;50.60;;;;;;5032641;28;20199;-56
2021/08/23 02:00:28;;;;;;;3.03;2.00;;;25.10;50.60;;;;;;5029119;28;20677;-55
2021/08/23 02:02:54;;;;;;;2.40;2.08;;;25.10;50.60;;;;;;5021899;28;20282;-55
2021/08/23 02:05:21;;;;;;;2.63;2.40;;;25.10;50.60;;;;;;5029688;28;20224;-55
2021/08/23 02:07:48;;;;;;;2.30;1.90;;;25.10;50.60;;;;;;5029704;28;20213;-56
2021/08/23 02:10:14;;;;;;;2.72;2.13;;;25.10;50.60;;;;;;5029427;28;20754;-51
2021/08/23 02:12:41;;;;;;;2.55;2.00;;;25.10;50.70;;;;;;5031780;28;20539;-56
2021/08/23 02:15:07;;;;;;;2.50;2.15;;;25.10;50.80;;;;;;5031464;28;20201;-55
2021/08/23 02:17:34;;;;;;;2.53;2.33;;;25.10;50.70;;;;;;5030784;28;20198;-55
2021/08/23 02:20:00;;;;;;;3.25;2.20;;;25.10;50.70;;;;;;5031136;28;20225;-55
2021/08/23 02:22:27;;;;;;;2.55;1.98;;;25.10;50.80;;;;;;5031049;28;20209;-53
2021/08/23 02:24:53;;;;;;;2.17;1.98;;;25.10;50.80;;;;;;5031318;28;20202;-55
2021/08/23 02:27:20;;;;;;;2.47;2.13;;;25.10;50.90;;;;;;5030890;28;20202;-56
2021/08/23 02:29:46;;;;;;;2.42;2.10;;;25.10;50.80;;;;;;5031121;28;20306;-52
2021/08/23 02:32:12;;;;;;;2.40;2.13;;;25.10;50.80;;;;;;5046723;22;20252;-64
2021/08/23 02:34:39;;;;;;;2.88;2.42;;;25.10;50.80;;;;;;5051780;28;20205;-64
2021/08/23 02:37:05;;;;;;;3.03;2.00;;;25.10;50.80;;;;;;5051148;28;20201;-64
2021/08/23 02:39:32;;;;;;;1.85;1.65;;;25.10;50.80;;;;;;5051642;28;20589;-64
2021/08/23 02:41:58;;;;;;;2.40;2.20;;;25.10;50.80;;;;;;5051872;28;20572;-64
2021/08/23 02:44:25;;;;;;;3.72;1.95;;;25.10;51.50;;;;;;5052205;28;20560;-63
2021/08/23 02:46:51;;;;;;;1.83;1.73;;;25.10;50.80;;;;;;5050868;28;20549;-65
2021/08/23 02:49:18;;;;;;;2.20;2.00;;;25.10;50.60;;;;;;5051400;28;20508;-65
2021/08/23 02:51:44;;;;;;;3.03;2.08;;;25.10;50.90;;;;;;5050885;28;20293;-64
2021/08/23 02:54:10;;;;;;;2.60;1.98;;;25.10;50.90;;;;;;5051633;28;20209;-65
2021/08/23 02:56:37;;;;;;;2.78;1.88;;;25.10;50.90;;;;;;5050843;28;20202;-65
2021/08/23 02:59:03;;;;;;;2.63;2.08;;;25.10;51.00;;;;;;5051528;28;20228;-63
2021/08/23 03:01:30;;;;;;;2.10;1.90;;;25.10;50.60;;;;;;5051061;28;20209;-64
2021/08/23 03:03:56;;;;;;;2.00;1.90;;;25.10;51.10;;;;;;5051641;28;20193;-64
2021/08/23 03:06:23;;;;;;;2.17;1.73;;;25.10;51.10;;;;;;5047826;28;20280;-64
2021/08/23 03:08:49;;;;;;;2.28;2.00;;;25.10;51.20;;;;;;5050652;28;20225;-64
2021/08/23 03:11:15;;;;;;;3.30;2.20;;;25.10;51.20;;;;;;5049769;28;20236;-64
2021/08/23 03:13:42;;;;;;;2.20;2.00;;;25.10;51.10;;;;;;5051006;28;20198;-64
2021/08/23 03:16:08;;;;;;;2.08;1.88;;;25.10;51.10;;;;;;5050532;28;20201;-64
2021/08/23 03:18:35;;;;;;;2.15;1.95;;;25.10;51.10;;;;;;5051319;28;20200;-64
2021/08/23 03:21:01;;;;;;;2.20;1.88;;;25.10;51.10;;;;;;5050070;28;20209;-64
2021/08/23 03:23:28;;;;;;;1.95;1.77;;;25.10;51.10;;;;;;5051599;28;20717;-61
2021/08/23 03:25:54;;;;;;;2.78;2.00;;;25.00;51.00;;;;;;5049728;28;20564;-61
2021/08/23 03:28:21;;;;;;;2.67;2.00;;;25.00;51.00;;;;;;5050705;28;20561;-61
2021/08/23 03:30:47;;;;;;;2.60;2.38;;;25.00;51.00;;;;;;5050275;28;20594;-61
2021/08/23 03:33:13;;;;;;;1.88;1.70;;;25.00;51.00;;;;;;5050827;28;20565;-61
2021/08/23 03:35:40;;;;;;;2.83;2.00;;;25.00;50.90;;;;;;5047791;28;20576;-61
2021/08/23 03:38:06;;;;;;;2.10;1.90;;;25.10;50.90;;;;;;5051129;28;20201;-62
2021/08/23 03:40:33;;;;;;;2.08;1.83;;;25.10;51.00;;;;;;5048222;28;20224;-61
2021/08/23 03:43:00;;;;;;;2.58;2.10;;;25.00;50.80;;;;;;5032012;28;20285;-61
2021/08/23 03:45:26;;;;;;;2.40;1.83;;;25.00;50.80;;;;;;5046123;28;20204;-61
2021/08/23 03:47:52;;;;;;;1.92;1.83;;;25.00;50.80;;;;;;5050980;28;20205;-61
2021/08/23 03:50:19;;;;;;;2.00;1.90;;;25.10;50.80;;;;;;5048994;28;20252;-61
2021/08/23 03:52:45;;;;;;;1.92;1.75;;;25.00;50.70;;;;;;5051024;28;20290;-61
2021/08/23 03:55:12;;;;;;;2.17;1.98;;;25.10;50.80;;;;;;5050506;28;20292;-61
2021/08/23 03:57:38;;;;;;;1.70;1.60;;;25.00;50.70;;;;;;5049527;28;20208;-61
2021/08/23 04:00:05;;;;;;;2.20;2.00;;;25.00;50.60;;;;;;5049788;28;20218;-62
2021/08/23 04:02:31;;;;;;;2.20;2.00;;;25.10;50.60;;;;;;5050161;28;20198;-62
2021/08/23 04:04:58;;;;;;;1.95;1.80;;;25.00;50.60;;;;;;5049899;28;20194;-62
2021/08/23 04:07:24;;;;;;;1.92;1.75;;;25.00;50.50;;;;;;5050382;28;20304;-61
2021/08/23 04:09:50;;;;;;;1.70;1.60;;;25.00;50.50;;;;;;5048819;28;20225;-61
2021/08/23 04:12:17;;;;;;;2.17;1.95;;;25.10;50.50;;;;;;5049812;28;20205;-62
2021/08/23 04:14:43;;;;;;;1.77;1.67;;;25.00;50.50;;;;;;5047898;28;20214;-61
2021/08/23 04:17:10;;;;;;;2.20;2.00;;;25.00;50.50;;;;;;5050891;28;20204;-61
2021/08/23 04:19:36;;;;;;;1.98;1.70;;;25.10;50.50;;;;;;5048760;28;20503;-62
2021/08/23 04:22:03;;;;;;;1.67;1.58;;;25.10;50.50;;;;;;5043968;28;20200;-62
2021/08/23 04:24:29;;;;;;;2.30;1.95;;;25.10;50.50;;;;;;5050116;28;20198;-61
2021/08/23 04:26:55;;;;;;;1.92;1.83;;;25.00;50.50;;;;;;5049266;28;20202;-62
2021/08/23 04:29:22;;;;;;;1.83;1.70;;;25.00;50.40;;;;;;5047051;28;20226;-62
2021/08/23 04:31:48;;;;;;;1.67;1.58;;;25.00;50.40;;;;;;5050139;28;20226;-61
2021/08/23 04:34:15;;;;;;;2.03;1.83;;;25.00;50.50;;;;;;5052823;28;20202;-61
2021/08/23 04:36:41;;;;;;;2.65;2.00;;;25.00;50.50;;;;;;5053264;28;20206;-62
2021/08/23 04:39:08;;;;;;;2.05;1.85;;;25.00;50.50;;;;;;5051524;28;20228;-61
2021/08/23 04:41:34;;;;;;;2.22;2.03;;;25.00;50.40;;;;;;5053487;28;20205;-62
2021/08/23 04:44:00;;;;;;;2.42;2.00;;;25.00;50.40;;;;;;5052396;28;20730;-62
2021/08/23 04:46:27;;;;;;;2.00;1.80;;;25.00;50.50;;;;;;5054090;28;20206;-61
2021/08/23 04:48:53;;;;;;;2.65;2.00;;;25.00;50.50;;;;;;5052378;28;20228;-61
2021/08/23 04:51:20;;;;;;;1.90;1.80;;;25.00;50.50;;;;;;5053195;28;20311;-61
2021/08/23 04:53:46;;;;;;;2.10;1.90;;;25.00;50.40;;;;;;5053020;28;20205;-61
2021/08/23 04:56:13;;;;;;;1.83;1.73;;;25.00;50.50;;;;;;5053754;28;20655;-62
2021/08/23 04:58:39;;;;;;;2.20;2.03;;;25.00;50.40;;;;;;5044675;28;20222;-61
2021/08/23 05:01:06;;;;;;;2.20;2.00;;;25.00;50.40;;;;;;5051982;28;20194;-62
2021/08/23 05:03:32;;;;;;;1.73;1.63;;;25.00;50.40;;;;;;5053244;28;20201;-62
2021/08/23 05:05:59;;;;;;;2.30;2.10;;;25.00;50.40;;;;;;5049920;28;20198;-61
2021/08/23 05:08:25;;;;;;;1.90;1.77;;;25.00;50.40;;;;;;5053402;28;20312;-62
2021/08/23 05:10:52;;;;;;;2.15;1.80;;;25.00;50.30;;;;;;5050857;28;20713;-61
2021/08/23 05:13:18;;;;;;;1.50;1.40;;;25.00;50.30;;;;;;5052433;28;20677;-61
2021/08/23 05:15:45;;;;;;;1.77;1.67;;;25.00;50.30;;;;;;5051993;28;21190;-61
2021/08/23 05:18:11;;;;;;;2.40;2.08;;;25.00;50.30;;;;;;5053253;28;20756;-61
2021/08/23 05:20:37;;;;;;;2.03;1.83;;;25.00;50.30;;;;;;5049837;28;20214;-61
2021/08/23 05:23:04;;;;;;;1.80;1.70;;;25.00;50.30;;;;;;5053556;28;20629;-61
2021/08/23 05:25:33;;;;;;;2.03;1.80;;;25.00;50.30;;;;;;5051294;28;20538;-61
2021/08/23 05:27:59;;;;;;;2.05;1.80;;;25.00;50.30;;;;;;5052857;28;20197;-61
2021/08/23 05:30:26;;;;;;;1.75;1.65;;;25.00;50.20;;;;;;5051044;28;20687;-62
2021/08/23 05:32:52;;;;;;;2.25;1.77;;;25.00;50.20;;;;;;5052192;28;20214;-62
2021/08/23 05:35:19;;;;;;;1.77;1.50;;;25.00;50.20;;;;;;5052201;28;20214;-61
2021/08/23 05:37:45;;;;;;;1.80;1.70;;;25.00;50.20;;;;;;5051862;28;20670;-62
2021/08/23 05:40:12;;;;;;;1.65;1.55;;;25.00;50.20;;;;;;5052141;28;20670;-62
2021/08/23 05:42:38;;;;;;;2.20;2.00;;;25.00;50.30;;;;;;5051244;28;20543;-61
2021/08/23 05:45:04;;;;;;;2.05;1.70;;;25.00;50.30;;;;;;5051449;28;20558;-62
2021/08/23 05:47:31;;;;;;;2.17;1.98;;;25.00;50.20;;;;;;5053143;28;20588;-61
2021/08/23 05:49:57;;;;;;;1.95;1.85;;;25.00;50.20;;;;;;5050492;28;20222;-62
2021/08/23 05:52:24;;;;;;;3.45;2.00;;;25.00;50.20;;;;;;5053355;28;20277;-61
2021/08/23 05:54:50;;;;;;;1.90;1.80;;;25.00;50.20;;;;;;5051917;28;20194;-62
2021/08/23 05:57:17;;;;;;;2.15;1.77;;;25.00;50.20;;;;;;5051419;28;20284;-61
2021/08/23 05:59:43;;;;;;;1.60;1.50;;;25.00;50.20;;;;;;5051441;28;20648;-61
2021/08/23 06:02:10;;;;;;;1.83;1.73;;;25.00;50.20;;;;;;5052149;28;20228;-63
2021/08/23 06:04:36;;;;;;;2.05;1.90;;;25.00;50.10;;;;;;5052817;28;20227;-63
2021/08/23 06:07:03;;;;;;;1.77;1.55;;;25.00;50.10;;;;;;5051740;28;20231;-64
2021/08/23 06:09:29;;;;;;;1.90;1.70;;;25.00;50.30;;;;;;5050833;28;20230;-64
2021/08/23 06:11:56;;;;;;;1.73;1.63;;;25.00;50.10;;;;;;5050236;28;20240;-62
2021/08/23 06:14:22;;;;;;;1.75;1.63;;;25.00;50.10;;;;;;5051721;28;20204;-62
2021/08/23 06:16:49;;;;;;;1.60;1.50;;;25.00;50.10;;;;;;5052816;28;20274;-62
2021/08/23 06:19:15;;;;;;;1.60;1.50;;;25.00;50.00;;;;;;5050578;28;20755;-62
2021/08/23 06:21:41;;;;;;;2.00;1.80;;;25.00;50.00;;;;;;5051583;28;20216;-62
2021/08/23 06:24:08;;;;;;;2.58;1.88;;;25.00;50.00;;;;;;5051536;28;20801;-61
2021/08/23 06:26:34;;;;;;;2.47;1.73;;;25.00;50.00;;;;;;5052385;28;20202;-62
2021/08/23 06:29:01;;;;;;;1.50;1.40;;;25.00;50.00;;;;;;5051972;28;20221;-62
2021/08/23 06:31:27;;;;;;;1.95;1.73;;;25.00;50.00;;;;;;5051471;28;20234;-62
2021/08/23 06:33:54;;;;;;;2.03;1.60;;;25.00;50.00;;;;;;5051451;28;20296;-62
2021/08/23 06:36:20;;;;;;;1.83;1.73;;;25.00;50.00;;;;;;5052093;28;20194;-62
2021/08/23 06:38:47;;;;;;;1.52;1.42;;;25.00;50.00;;;;;;5050224;28;20222;-62
2021/08/23 06:41:13;;;;;;;2.15;1.52;;;25.00;50.00;;;;;;5041613;28;20202;-62
2021/08/23 06:43:40;;;;;;;1.50;1.40;;;25.00;50.00;;;;;;5050933;28;20208;-62
2021/08/23 06:46:06;;;;;;;2.15;1.83;;;25.00;50.00;;;;;;5051932;28;20286;-61
2021/08/23 06:48:33;;;;;;;1.60;1.48;;;25.00;50.00;;;;;;5050906;28;20232;-62
2021/08/23 06:50:59;;;;;;;2.15;1.95;;;25.00;49.90;;;;;;5051013;28;20236;-61
2021/08/23 06:53:26;;;;;;;1.70;1.60;;;25.00;49.90;;;;;;5050101;28;20206;-61
2021/08/23 06:55:52;;;;;;;2.00;1.67;;;25.00;49.90;;;;;;5050948;28;20193;-61
2021/08/23 06:58:18;;;;;;;1.60;1.45;;;25.00;49.80;;;;;;5048869;28;20245;-62
2021/08/23 07:00:45;;;;;;;1.65;1.55;;;25.00;49.60;;;;;;5048448;28;20668;-61
2021/08/23 07:03:11;;;;;;;2.13;1.90;;;25.10;49.80;;;;;;5046574;28;20202;-62
2021/08/23 07:05:38;;;;;;;1.90;1.73;;;25.10;50.40;;;;;;5051253;28;20216;-61
2021/08/23 07:08:04;;;;;;;1.80;1.70;;;25.10;50.70;;;;;;5047843;28;20231;-59
2021/08/23 07:10:32;;;;;;;1.80;1.50;;;25.10;50.10;;;;;;5046816;28;20239;-63
2021/08/23 07:12:58;;;;;;;3.40;1.58;;;25.20;50.00;;;;;;5035838;28;20682;-61
2021/08/23 07:15:25;;;;;;;3.22;1.80;;;25.20;50.00;;;;;;5048840;28;20212;-62
2021/08/23 07:17:51;;;;;;;3.63;1.70;;;25.20;50.20;;;;;;5050023;28;20222;-67
2021/08/23 07:20:18;;;;;;;3.20;1.75;;;25.20;50.00;;;;;;5048237;28;20255;-61
2021/08/23 07:22:44;;;;;;;6.47;1.85;;;25.20;50.20;;;;;;5049423;28;20217;-60
2021/08/23 07:25:11;;;;;;;3.17;1.85;;;25.20;49.80;;;;;;5051500;28;20197;-61
2021/08/23 07:27:37;;;;;;;2.85;1.75;;;25.20;49.70;;;;;;5055207;28;20201;-59
2021/08/23 07:30:03;;;;;;;3.55;1.90;;;25.20;49.20;;;;;;5043918;28;20198;-62
2021/08/23 07:32:31;;;;;;;6.65;2.38;;;25.20;49.20;;;;;;5049398;28;20230;-58
2021/08/23 07:34:57;;;;;;;4.18;2.15;;;25.20;49.60;;;;;;5049325;28;20206;-60
2021/08/23 07:37:24;;;;;;;4.80;2.15;;;25.20;50.40;;;;;;5049348;28;20300;-58
2021/08/23 07:39:50;;;;;;;4.53;2.08;;;25.20;51.90;;;;;;5051845;28;20208;-60
2021/08/23 07:42:18;;;;;;;4.22;2.15;;;25.10;51.80;;;;;;5049868;28;20198;-58
2021/08/23 07:44:44;;;;;;;3.00;2.05;;;25.10;51.40;;;;;;5060951;28;20251;-61
2021/08/23 07:47:10;;;;;;;8.02;2.47;;;25.10;51.80;;;;;;5065892;28;20296;-61
2021/08/23 07:49:37;;;;;;;5.25;2.47;;;25.10;52.00;;;;;;5044771;28;20587;-60
2021/08/23 07:52:03;;;;;;;8.23;3.05;;;25.10;51.50;;;;;;5051314;28;20580;-60
2021/08/23 07:54:32;;;;;;;4.25;2.00;;;25.10;51.30;;;;;;5049634;28;20584;-61
2021/08/23 07:56:58;;;;;;;2.63;2.00;;;22.90;46.90;;;;;;5050127;28;20213;-61
2021/08/23 07:59:25;;;;;;;2.20;1.77;;;21.70;48.90;;;;;;5048739;28;20218;-61
2021/08/23 08:01:51;;;;;;;1.60;1.50;;;20.80;50.00;;;;;;5050327;28;20204;-61
2021/08/23 08:04:18;;;;;;;2.92;1.80;;;21.30;51.10;;;;;;5048819;28;20204;-61
2021/08/23 08:06:45;;;;;;;2.42;1.90;;;22.50;49.70;;;;;;5049890;28;20208;-61
2021/08/23 08:09:11;;;;;;;3.03;1.60;;;23.20;48.70;;;;;;5053630;28;20222;-61
2021/08/23 08:11:37;;;;;;;1.85;1.60;;;23.60;48.00;;;;;;5053306;28;20221;-61
2021/08/23 08:14:04;;;;;;;2.78;1.70;;;23.90;47.70;;;;;;5053771;28;20202;-61
2021/08/23 08:16:30;;;;;;;2.42;1.95;;;24.10;47.80;;;;;;5052884;28;20207;-61
2021/08/23 08:18:57;;;;;;;4.07;2.00;;;24.30;48.40;;;;;;5053102;28;20217;-61
2021/08/23 08:21:23;;;;;;;2.97;2.00;;;24.40;48.70;;;;;;5052806;28;20290;-61
2021/08/23 08:23:53;;;;;;;2.72;1.85;;;24.40;48.90;;;;;;5049864;28;20233;-61
2021/08/23 08:26:19;;;;;;;3.08;1.90;;;24.40;49.20;;;;;;5052530;28;20236;-61
2021/08/23 08:28:46;;;;;;;1.80;1.70;;;24.50;49.40;;;;;;5053398;28;20228;-61
2021/08/23 08:31:12;;;;;;;3.97;2.15;;;24.50;49.60;;;;;;5049937;28;20240;-62
2021/08/23 08:33:39;;;;;;;2.40;1.80;;;24.50;49.00;;;;;;5052431;28;20213;-60
2021/08/23 08:36:05;;;;;;;2.25;1.70;;;24.50;48.70;;;;;;5053525;28;20200;-61
2021/08/23 08:38:31;;;;;;;2.50;1.77;;;24.50;48.10;;;;;;5047133;28;20311;-61
2021/08/23 08:40:58;;;;;;;2.58;1.88;;;24.50;47.60;;;;;;5057298;28;20637;-66
2021/08/23 08:43:24;;;;;;;2.30;1.63;;;24.50;47.20;;;;;;5051714;28;20691;-66
2021/08/23 08:45:51;;;;;;;3.20;1.77;;;24.50;46.80;;;;;;5062335;28;20565;-64
2021/08/23 08:48:18;;;;;;;2.47;1.55;;;24.50;46.80;;;;;;5065771;28;20788;-59
2021/08/23 08:50:45;;;;;;;2.55;1.63;;;24.60;46.60;;;;;;5055159;28;20212;-61
2021/08/23 08:53:11;;;;;;;2.15;1.60;;;24.60;46.50;;;;;;5066375;28;20293;-61
2021/08/23 08:55:38;;;;;;;4.00;1.50;;;24.60;47.90;;;;;;5051254;28;20206;-63
2021/08/23 08:58:05;;;;;;;3.30;2.00;;;24.70;47.60;;;;;;5057349;28;20304;-62
2021/08/23 09:00:32;;;;;;;5.22;1.98;;;24.60;46.80;;;;;;5065215;28;20541;-62
2021/08/23 09:03:00;;;;;;;2.15;1.77;;;24.70;46.70;;;;;;5059775;28;20229;-62
2021/08/23 09:05:26;;;;;;;3.20;1.40;;;24.60;46.90;;;;;;5053360;28;20225;-62
2021/08/23 09:07:53;;;;;;;4.40;1.67;;;24.60;46.80;;;;;;5051348;28;20226;-62
2021/08/23 09:10:19;;;;;;;1.88;1.48;;;24.60;46.40;;;;;;5050749;28;20206;-62
2021/08/23 09:12:46;;;;;;;1.70;1.58;;;24.60;46.10;;;;;;5046689;28;20230;-63
2021/08/23 09:15:12;;;;;;;4.03;1.50;;;24.60;45.70;;;;;;5052222;28;20198;-67
2021/08/23 09:17:38;;;;;;;2.45;1.65;;;24.60;46.40;;;;;;5050023;28;20223;-65
2021/08/23 09:20:05;;;;;;;2.97;1.65;;;24.70;46.40;;;;;;5052393;28;20292;-65
2021/08/23 09:22:31;;;;;;;2.70;1.65;;;24.70;46.10;;;;;;5053638;28;20544;-65
2021/08/23 09:24:58;;;;;;;2.13;1.55;;;24.70;48.00;;;;;;5053697;28;20579;-65
2021/08/23 09:27:24;;;;;;;2.42;1.80;;;24.70;48.30;;;;;;5053510;28;20586;-65
2021/08/23 09:29:54;;;;;;;2.75;2.15;;;24.70;48.30;;;;;;5053297;28;20206;-65
2021/08/23 09:32:20;;;;;;;2.45;1.63;;;24.70;48.30;;;;;;5053409;28;20236;-65
2021/08/23 09:34:47;;;;;;;2.65;1.83;;;24.70;48.50;;;;;;5053929;28;20212;-64
2021/08/23 09:37:13;;;;;;;2.65;1.60;;;24.70;48.70;;;;;;5053189;28;20226;-64
2021/08/23 09:39:40;;;;;;;1.88;1.70;;;24.70;48.70;;;;;;5047430;28;20212;-65
2021/08/23 09:42:06;;;;;;;2.05;1.50;;;24.80;49.60;;;;;;5052057;28;20288;-64
2021/08/23 09:44:33;;;;;;;2.35;1.30;;;24.80;48.40;;;;;;5053325;28;20228;-64
2021/08/23 09:46:59;;;;;;;1.75;1.45;;;24.80;48.40;;;;;;5049863;28;21477;-64
2021/08/23 09:49:27;;;;;;;1.52;1.42;;;24.80;48.40;;;;;;5050803;28;20240;-64
2021/08/23 09:51:53;;;;;;;1.73;1.50;;;24.80;48.40;;;;;;5038282;28;20233;-65
2021/08/23 09:54:20;;;;;;;1.88;1.48;;;24.80;47.80;;;;;;5053236;28;20202;-65
2021/08/23 09:56:46;;;;;;;2.47;1.90;;;24.80;46.60;;;;;;5052893;28;20775;-64
2021/08/23 09:59:13;;;;;;;1.65;1.55;;;24.70;46.70;;;;;;5052795;28;20220;-65
2021/08/23 10:01:39;;;;;;;2.00;1.80;;;24.70;45.60;;;;;;5051930;28;20596;-64
2021/08/23 10:04:06;;;;;;;1.60;1.50;;;24.70;45.60;;;;;;5050586;28;20202;-63
2021/08/23 10:06:32;;;;;;;1.92;1.40;;;24.70;45.70;;;;;;5052272;28;20210;-55
2021/08/23 10:08:59;;;;;;;2.40;1.70;;;24.80;45.80;;;;;;5052720;28;20232;-55
2021/08/23 10:11:25;;;;;;;2.25;1.30;;;24.80;45.10;;;;;;5051028;28;20222;-56
2021/08/23 10:13:52;;;;;;;2.58;1.67;;;24.70;44.80;;;;;;5049079;28;20201;-56
2021/08/23 10:16:18;;;;;;;1.75;1.27;;;24.80;45.30;;;;;;5048375;28;20204;-48
2021/08/23 10:18:44;;;;;;;1.55;1.30;;;24.80;45.10;;;;;;5052247;28;20224;-53
2021/08/23 10:21:11;;;;;;;2.33;1.40;;;24.80;44.90;;;;;;5054085;28;20199;-49
2021/08/23 10:23:37;;;;;;;1.55;1.45;;;24.80;45.00;;;;;;5060722;28;20888;-49
2021/08/23 10:26:04;;;;;;;1.55;1.45;;;24.80;45.40;;;;;;5052399;28;20679;-52
2021/08/23 10:28:30;;;;;;;1.50;1.40;;;24.90;45.30;;;;;;5050188;28;20816;-53
2021/08/23 10:30:57;;;;;;;2.65;1.48;;;24.90;45.00;;;;;;5055323;28;20579;-58
2021/08/23 10:33:23;;;;;;;1.98;1.42;;;24.90;45.20;;;;;;5055646;28;20255;-54
2021/08/23 10:35:50;;;;;;;2.08;1.50;;;24.90;44.80;;;;;;5050673;28;20550;-55
2021/08/23 10:38:17;;;;;;;1.70;1.48;;;24.90;45.20;;;;;;5050547;28;20308;-55
2021/08/23 10:40:43;;;;;;;2.03;1.10;;;24.90;44.90;;;;;;5051841;28;20227;-52
2021/08/23 10:43:10;;;;;;;2.05;1.50;;;24.90;45.10;;;;;;5052325;28;20549;-56
2021/08/23 10:45:37;;;;;;;1.35;1.10;;;24.80;45.40;;;;;;5049932;28;20344;-55
2021/08/23 10:48:03;;;;;;;1.75;1.50;;;24.80;45.20;;;;;;5040412;28;20305;-57
2021/08/23 10:50:29;;;;;;;2.20;1.67;;;24.80;46.00;;;;;;5046740;28;20210;-57
2021/08/23 10:52:57;;;;;;;1.80;1.27;;;24.80;45.20;;;;;;5051949;28;20304;-56
2021/08/23 10:55:23;;;;;;;2.53;1.60;;;24.80;44.60;;;;;;5051125;28;20209;-58
2021/08/23 10:57:50;;;;;;;1.40;1.30;;;24.80;45.00;;;;;;5050567;28;20228;-57
2021/08/23 11:00:17;;;;;;;2.00;1.45;;;24.80;44.90;;;;;;5048393;28;20197;-57
2021/08/23 11:02:43;;;;;;;2.10;1.52;;;24.80;44.40;;;;;;5061890;28;20200;-57
2021/08/23 11:05:10;;;;;;;2.53;1.70;;;24.90;44.30;;;;;;5050340;28;20212;-57
2021/08/23 11:07:36;;;;;;;1.83;1.38;;;24.90;44.40;;;;;;5049545;28;20295;-57
2021/08/23 11:10:03;;;;;;;2.95;1.50;;;24.90;44.90;;;;;;5031150;28;20225;-57
2021/08/23 11:12:29;;;;;;;1.77;1.67;;;24.90;45.10;;;;;;5045631;28;20316;-54
2021/08/23 11:14:56;;;;;;;1.52;1.42;;;24.90;44.20;;;;;;5050047;28;20289;-55
2021/08/23 11:17:22;;;;;;;2.10;1.63;;;24.90;44.40;;;;;;5050610;28;20304;-55
2021/08/23 11:19:50;;;;;;;2.13;1.63;;;24.90;43.70;;;;;;5049610;28;20216;-56
2021/08/23 11:22:16;;;;;;;1.80;1.48;;;24.90;43.70;;;;;;5048567;28;20263;-56
2021/08/23 11:24:42;;;;;;;1.98;1.60;;;24.90;43.70;;;;;;5048929;28;20212;-56
2021/08/23 11:27:09;;;;;;;2.58;1.80;;;24.90;43.70;;;;;;5047889;28;20217;-52
2021/08/23 11:29:38;;;;;;;1.90;1.70;;;24.70;43.50;;;;;;5047396;28;20201;-53
2021/08/23 11:32:05;;;;;;;2.72;1.75;;;23.80;42.70;;;;;;5049246;28;20229;-54
2021/08/23 11:34:31;;;;;;;1.80;1.67;;;23.30;41.70;;;;;;5051044;28;20197;-56
2021/08/23 11:36:57;;;;;;;3.90;1.98;;;23.50;41.90;;;;;;5055424;28;20577;-53
2021/08/23 11:39:24;;;;;;;2.63;1.92;;;23.60;42.10;;;;;;5051842;28;20688;-53
2021/08/23 11:41:50;;;;;;;2.60;1.65;;;23.40;41.50;;;;;;5048485;28;20654;-54
2021/08/23 11:44:17;;;;;;;3.05;1.98;;;22.80;41.80;;;;;;5049258;28;20654;-59
2021/08/23 11:46:43;;;;;;;2.08;1.85;;;23.00;42.30;;;;;;5050777;28;20967;-59
2021/08/23 11:49:10;;;;;;;2.45;1.70;;;23.10;42.00;;;;;;5049720;28;20574;-58
2021/08/23 11:51:36;;;;;;;2.13;1.75;;;22.80;41.80;;;;;;5047229;28;20999;-58
2021/08/23 11:54:03;;;;;;;2.22;1.60;;;23.20;42.20;;;;;;5046378;28;20277;-55
2021/08/23 11:56:29;;;;;;;2.80;1.73;;;23.00;41.80;;;;;;5044737;28;20209;-60
2021/08/23 11:58:56;;;;;;;2.85;1.73;;;23.50;42.10;;;;;;5052097;28;20201;-59
2021/08/23 12:01:22;;;;;;;1.50;1.40;;;23.90;42.30;;;;;;5045003;28;21438;-59
2021/08/23 12:03:49;;;;;;;8.80;2.58;;;24.20;42.40;;;;;;5055536;28;20193;-56
2021/08/23 12:06:16;;;;;;;8.98;3.20;;;24.40;43.60;;;;;;5069420;28;20567;-60
2021/08/23 12:08:43;;;;;;;7.88;2.08;;;24.60;43.90;;;;;;5046027;28;20574;-61
2021/08/23 12:11:10;;;;;;;6.07;2.50;;;24.50;43.40;;;;;;5050602;28;20202;-61
2021/08/23 12:13:37;;;;;;;4.50;2.08;;;24.60;43.60;;;;;;5064464;28;20220;-61
2021/08/23 12:16:03;;;;;;;4.30;2.40;;;24.60;44.20;;;;;;5070915;28;20201;-61
2021/08/23 12:18:30;;;;;;;6.00;2.47;;;24.60;44.30;;;;;;5053471;28;20582;-61
2021/08/23 12:20:56;;;;;;;5.28;2.25;;;24.70;44.20;;;;;;5050918;28;20210;-60
2021/08/23 12:23:23;;;;;;;6.53;2.38;;;24.60;44.60;;;;;;5050396;28;20575;-61
2021/08/23 12:25:51;;;;;;;7.90;2.13;;;24.60;44.90;;;;;;5050378;28;20209;-61
2021/08/23 12:28:17;;;;;;;3.95;2.20;;;24.70;44.90;;;;;;5050756;28;20287;-61
2021/08/23 12:30:44;;;;;;;5.25;2.28;;;24.70;45.00;;;;;;5048551;28;20202;-61
2021/08/23 12:33:10;;;;;;;6.35;2.85;;;24.70;45.20;;;;;;5034862;28;20236;-60
2021/08/23 12:35:37;;;;;;;4.85;2.10;;;24.70;45.30;;;;;;5050933;28;20300;-61
2021/08/23 12:38:03;;;;;;;3.92;2.30;;;24.70;45.50;;;;;;5050978;28;20312;-60
2021/08/23 12:40:30;;;;;;;5.68;2.00;;;24.70;45.90;;;;;;5050328;28;20289;-61
2021/08/23 12:42:56;;;;;;;2.30;1.98;;;24.70;45.60;;;;;;5051009;28;20208;-61